createdAt,value
2022-11-24T00:01:36.276Z,7.20
2022-11-24T00:04:09.768Z,7.30
2022-11-24T00:06:38.415Z,7.30
2022-11-24T00:09:08.059Z,7.30
2022-11-24T00:11:38.216Z,7.20
2022-11-24T00:14:07.093Z,7.00
2022-11-24T00:16:38.380Z,7.00
2022-11-24T00:19:10.246Z,6.90
2022-11-24T00:21:39.404Z,7.00
2022-11-24T00:24:07.713Z,6.90
2022-11-24T00:26:37.777Z,6.90
2022-11-24T00:29:09.625Z,6.90
2022-11-24T00:31:43.261Z,6.90
2022-11-24T00:34:14.827Z,6.90
2022-11-24T00:36:43.191Z,6.90
2022-11-24T00:39:16.051Z,6.80
2022-11-24T00:41:44.517Z,6.70
2022-11-24T00:44:12.427Z,6.90
2022-11-24T00:46:41.020Z,6.90
2022-11-24T00:49:09.379Z,6.90
2022-11-24T00:51:37.120Z,6.90
2022-11-24T00:54:04.837Z,7.00
2022-11-24T00:56:32.684Z,6.90
2022-11-24T00:59:00.697Z,7.00
2022-11-24T01:01:33.227Z,6.90
2022-11-24T01:04:02.206Z,6.90
2022-11-24T01:06:32.720Z,6.80
2022-11-24T01:09:00.646Z,6.80
2022-11-24T01:11:54.694Z,6.70
2022-11-24T01:14:25.860Z,6.80
2022-11-24T01:16:54.996Z,6.70
2022-11-24T01:19:23.749Z,6.70
2022-11-24T01:21:51.615Z,6.70
2022-11-24T01:24:19.712Z,6.70
2022-11-24T01:26:47.504Z,6.70
2022-11-24T01:29:16.698Z,6.70
2022-11-24T01:31:45.105Z,6.70
2022-11-24T01:34:13.619Z,6.70
2022-11-24T01:36:41.363Z,6.70
2022-11-24T01:39:09.126Z,6.70
2022-11-24T01:41:36.816Z,6.70
2022-11-24T01:44:30.136Z,6.70
2022-11-24T01:47:43.629Z,6.70
2022-11-24T01:50:18.014Z,6.70
2022-11-24T01:52:55.421Z,6.70
2022-11-24T01:55:35.948Z,6.70
2022-11-24T01:58:20.808Z,6.80
2022-11-24T02:00:48.702Z,6.90
2022-11-24T02:03:27.798Z,7.00
2022-11-24T02:06:12.339Z,7.20
2022-11-24T02:09:16.817Z,7.30
2022-11-24T02:11:47.156Z,7.30
2022-11-24T02:14:19.336Z,7.30
2022-11-24T02:16:53.135Z,7.40
2022-11-24T02:19:45.287Z,7.30
2022-11-24T02:23:18.122Z,7.20
2022-11-24T02:26:12.553Z,7.10
2022-11-24T02:28:40.752Z,7.20
2022-11-24T02:31:09.260Z,7.10
2022-11-24T02:33:38.522Z,7.00
2022-11-24T02:36:08.086Z,6.90
2022-11-24T02:38:36.830Z,7.00
2022-11-24T02:41:16.207Z,7.10
2022-11-24T02:44:01.762Z,7.10
2022-11-24T02:46:29.439Z,7.10
2022-11-24T02:48:57.335Z,7.00
2022-11-24T02:51:25.012Z,7.10
2022-11-24T02:53:53.024Z,7.20
2022-11-24T02:56:21.331Z,7.20
2022-11-24T02:58:49.070Z,7.20
2022-11-24T03:01:16.800Z,7.20
2022-11-24T03:03:44.890Z,7.10
2022-11-24T03:06:12.708Z,7.10
2022-11-24T03:08:40.369Z,7.10
2022-11-24T03:11:08.103Z,7.20
2022-11-24T03:13:35.752Z,7.20
2022-11-24T03:16:03.491Z,7.30
2022-11-24T03:18:31.187Z,7.30
2022-11-24T03:21:02.142Z,7.30
2022-11-24T03:23:29.893Z,7.30
2022-11-24T03:26:15.434Z,7.40
2022-11-24T03:28:44.079Z,7.40
2022-11-24T03:31:13.714Z,7.40
2022-11-24T03:33:41.528Z,7.50
2022-11-24T03:36:10.355Z,7.60
2022-11-24T03:38:38.199Z,7.60
2022-11-24T03:41:06.453Z,7.60
2022-11-24T03:43:37.805Z,7.60
2022-11-24T03:46:08.820Z,7.60
2022-11-24T03:48:36.632Z,7.50
2022-11-24T03:51:04.858Z,7.50
2022-11-24T03:53:33.962Z,7.50
2022-11-24T03:56:02.485Z,7.40
2022-11-24T03:58:31.611Z,7.30
2022-11-24T04:00:59.670Z,7.40
2022-11-24T04:03:27.815Z,7.40
2022-11-24T04:05:55.668Z,7.40
2022-11-24T04:08:23.796Z,7.50
2022-11-24T04:10:55.085Z,7.60
2022-11-24T04:13:26.610Z,7.70
2022-11-24T04:15:54.886Z,7.80
2022-11-24T04:18:22.958Z,7.90
2022-11-24T04:20:52.585Z,7.90
2022-11-24T04:23:20.422Z,8.00
2022-11-24T04:25:48.142Z,8.00
2022-11-24T04:28:15.885Z,8.00
2022-11-24T04:30:45.175Z,8.10
2022-11-24T04:33:13.730Z,8.10
2022-11-24T04:35:41.511Z,8.10
2022-11-24T04:38:09.459Z,8.10
2022-11-24T04:40:38.411Z,8.00
2022-11-24T04:43:06.574Z,8.00
2022-11-24T04:45:34.245Z,8.00
2022-11-24T04:48:01.854Z,8.00
2022-11-24T04:50:29.672Z,8.00
2022-11-24T04:52:57.315Z,8.00
2022-11-24T04:55:24.964Z,8.00
2022-11-24T04:57:52.547Z,8.00
2022-11-24T05:00:20.988Z,7.90
2022-11-24T05:02:49.040Z,7.90
2022-11-24T05:05:16.766Z,8.00
2022-11-24T05:07:44.403Z,7.90
2022-11-24T05:10:30.415Z,7.80
2022-11-24T05:12:59.765Z,7.80
2022-11-24T05:15:28.008Z,7.80
2022-11-24T05:17:56.012Z,7.90
2022-11-24T05:20:24.564Z,7.90
2022-11-24T05:22:52.587Z,7.90
2022-11-24T05:25:20.882Z,8.00
2022-11-24T05:27:48.490Z,8.00
2022-11-24T05:30:16.431Z,8.00
2022-11-24T05:32:44.340Z,8.00
2022-11-24T05:35:12.013Z,8.00
2022-11-24T05:37:39.768Z,8.00
2022-11-24T05:40:08.559Z,8.10
2022-11-24T05:42:47.128Z,8.20
2022-11-24T05:45:21.221Z,8.10
2022-11-24T05:47:51.574Z,8.30
2022-11-24T05:50:22.924Z,8.20
2022-11-24T05:52:50.975Z,8.40
2022-11-24T05:55:19.727Z,8.30
2022-11-24T05:57:47.299Z,8.40
2022-11-24T06:00:18.260Z,8.30
2022-11-24T06:02:46.021Z,8.30
2022-11-24T06:05:14.334Z,8.20
2022-11-24T06:07:42.052Z,8.50
2022-11-24T06:10:10.567Z,8.40
2022-11-24T06:12:38.155Z,8.30
2022-11-24T06:15:06.884Z,8.30
2022-11-24T06:17:34.649Z,8.30
2022-11-24T06:20:02.279Z,8.20
2022-11-24T06:22:29.848Z,8.30
2022-11-24T06:24:57.617Z,8.20
2022-11-24T06:27:25.784Z,8.20
2022-11-24T06:29:54.221Z,8.20
2022-11-24T06:32:21.854Z,8.10
2022-11-24T06:34:49.459Z,8.10
2022-11-24T06:37:17.116Z,8.10
2022-11-24T06:39:44.694Z,8.20
2022-11-24T06:42:12.515Z,8.10
2022-11-24T06:44:40.319Z,8.10
2022-11-24T06:47:07.795Z,8.00
2022-11-24T06:49:35.444Z,8.00
2022-11-24T06:52:03.027Z,8.00
2022-11-24T06:54:30.690Z,7.90
2022-11-24T06:57:00.508Z,7.90
2022-11-24T06:59:28.488Z,7.90
2022-11-24T07:01:56.135Z,8.00
2022-11-24T07:04:23.936Z,8.10
2022-11-24T07:06:51.550Z,8.20
2022-11-24T07:09:19.667Z,8.20
2022-11-24T07:11:47.327Z,8.30
2022-11-24T07:14:15.011Z,8.30
2022-11-24T07:16:42.707Z,8.40
2022-11-24T07:19:11.269Z,8.40
2022-11-24T07:21:38.900Z,8.40
2022-11-24T07:24:07.367Z,8.40
2022-11-24T07:26:37.542Z,8.40
2022-11-24T07:29:06.214Z,8.50
2022-11-24T07:31:34.011Z,8.50
2022-11-24T07:34:01.763Z,8.50
2022-11-24T07:36:29.630Z,8.50
2022-11-24T07:38:57.648Z,8.50
2022-11-24T07:41:25.385Z,8.50
2022-11-24T07:43:53.233Z,8.50
2022-11-24T07:46:21.384Z,8.50
2022-11-24T07:48:49.218Z,8.50
2022-11-24T07:51:17.464Z,8.50
2022-11-24T07:53:46.781Z,8.50
2022-11-24T07:56:14.624Z,8.60
2022-11-24T07:58:42.650Z,8.70
2022-11-24T08:01:18.444Z,8.70
2022-11-24T08:03:47.889Z,8.70
2022-11-24T08:06:31.873Z,8.60
2022-11-24T08:09:06.132Z,8.50
2022-11-24T08:11:34.698Z,8.60
2022-11-24T08:14:02.340Z,8.60
2022-11-24T08:16:30.120Z,8.60
2022-11-24T08:18:57.831Z,8.60
2022-11-24T08:21:26.177Z,8.70
2022-11-24T08:23:58.294Z,8.80
2022-11-24T08:26:26.844Z,8.70
2022-11-24T08:28:59.892Z,8.80
2022-11-24T08:31:34.025Z,8.80
2022-11-24T08:34:04.812Z,8.80
2022-11-24T08:36:34.354Z,8.80
2022-11-24T08:39:03.018Z,8.80
2022-11-24T08:41:31.931Z,8.90
2022-11-24T08:43:59.578Z,9.00
2022-11-24T08:46:27.489Z,8.90
2022-11-24T08:48:57.691Z,8.90
2022-11-24T08:51:28.359Z,8.90
2022-11-24T08:54:00.779Z,8.90
2022-11-24T08:56:33.271Z,8.90
2022-11-24T08:59:01.946Z,8.90
2022-11-24T09:01:30.538Z,9.00
2022-11-24T09:03:59.032Z,9.10
2022-11-24T09:06:32.348Z,9.10
2022-11-24T09:09:11.675Z,9.10
2022-11-24T09:11:39.396Z,9.20
2022-11-24T09:14:07.334Z,9.20
2022-11-24T09:16:36.033Z,9.10
2022-11-24T09:19:08.219Z,9.10
2022-11-24T09:21:40.102Z,9.10
2022-11-24T09:24:10.732Z,9.10
2022-11-24T09:26:44.534Z,9.20
2022-11-24T09:29:12.693Z,9.10
2022-11-24T09:31:41.187Z,9.10
2022-11-24T09:34:15.956Z,9.10
2022-11-24T09:36:44.297Z,9.10
2022-11-24T09:39:12.394Z,9.20
2022-11-24T09:42:19.868Z,9.30
2022-11-24T09:45:35.696Z,9.40
2022-11-24T09:48:30.816Z,9.50
2022-11-24T09:51:04.682Z,9.50
2022-11-24T09:53:46.452Z,9.50
2022-11-24T09:56:28.516Z,9.50
2022-11-24T09:59:19.972Z,9.50
2022-11-24T10:01:51.456Z,9.50
2022-11-24T10:04:47.348Z,9.40
2022-11-24T10:07:45.342Z,9.30
2022-11-24T10:11:21.999Z,9.40
2022-11-24T10:14:36.495Z,9.50
2022-11-24T10:18:04.297Z,9.40
2022-11-24T10:20:53.486Z,9.50
2022-11-24T10:24:32.293Z,9.40
2022-11-24T10:27:30.442Z,9.50
2022-11-24T10:30:00.268Z,9.40
2022-11-24T10:32:40.338Z,9.50
2022-11-24T10:35:47.527Z,9.60
2022-11-24T10:38:56.758Z,9.70
2022-11-24T10:42:06.062Z,9.80
2022-11-24T10:44:33.878Z,9.90
2022-11-24T10:47:01.465Z,10.20
2022-11-24T10:49:33.719Z,10.20
2022-11-24T10:52:19.189Z,10.10
2022-11-24T10:55:06.768Z,10.10
2022-11-24T10:57:41.497Z,10.30
2022-11-24T11:00:20.949Z,10.40
2022-11-24T11:03:12.029Z,10.50
2022-11-24T11:05:48.051Z,10.40
2022-11-24T11:08:33.283Z,10.30
2022-11-24T11:11:30.369Z,10.40
2022-11-24T11:14:06.932Z,10.40
2022-11-24T11:16:53.868Z,10.50
2022-11-24T11:19:53.259Z,10.60
2022-11-24T11:22:36.135Z,10.50
2022-11-24T11:25:36.513Z,10.50
2022-11-24T11:28:30.129Z,10.60
2022-11-24T11:31:19.936Z,10.70
2022-11-24T11:34:13.933Z,10.70
2022-11-24T11:36:54.817Z,10.80
2022-11-24T11:39:48.477Z,10.70
2022-11-24T11:43:01.844Z,10.70
2022-11-24T11:45:41.847Z,10.60
2022-11-24T11:48:43.186Z,10.70
2022-11-24T11:51:37.882Z,10.50
2022-11-24T11:54:35.137Z,10.60
2022-11-24T11:57:44.179Z,10.50
2022-11-24T12:00:22.930Z,10.50
2022-11-24T12:04:13.553Z,10.50
2022-11-24T12:07:50.121Z,10.40
2022-11-24T12:11:40.791Z,10.50
2022-11-24T12:15:20.551Z,10.30
2022-11-24T12:18:57.486Z,10.30
2022-11-24T12:22:24.079Z,10.40
2022-11-24T12:25:41.071Z,10.50
2022-11-24T12:29:07.959Z,10.60
2022-11-24T12:32:24.773Z,10.60
2022-11-24T12:35:43.878Z,10.50
2022-11-24T12:38:54.769Z,10.40
2022-11-24T12:42:01.449Z,10.30
2022-11-24T12:45:09.108Z,10.20
2022-11-24T12:48:28.291Z,10.20
2022-11-24T12:51:00.580Z,10.20
2022-11-24T12:53:35.126Z,10.20
2022-11-24T12:56:16.435Z,10.20
2022-11-24T12:59:34.341Z,10.40
2022-11-24T13:02:28.029Z,10.60
2022-11-24T13:05:21.217Z,10.80
2022-11-24T13:08:00.445Z,10.90
2022-11-24T13:14:02.418Z,10.90
2022-11-24T13:16:48.722Z,10.80
2022-11-24T13:19:32.022Z,10.70
2022-11-24T13:22:09.452Z,10.70
2022-11-24T13:24:40.781Z,10.70
2022-11-24T13:27:24.779Z,10.60
2022-11-24T13:29:54.064Z,10.60
2022-11-24T13:32:21.530Z,10.70
2022-11-24T13:34:55.359Z,10.70
2022-11-24T13:37:31.432Z,10.70
2022-11-24T13:40:23.918Z,10.70
2022-11-24T13:42:57.921Z,10.80
2022-11-24T13:45:45.229Z,10.80
2022-11-24T13:48:22.412Z,10.80
2022-11-24T13:50:50.531Z,10.90
2022-11-24T13:53:49.030Z,10.80
2022-11-24T13:56:16.573Z,10.70
2022-11-24T13:58:52.804Z,10.70
2022-11-24T14:01:28.836Z,10.60
2022-11-24T14:04:35.008Z,10.50
2022-11-24T14:07:16.991Z,10.40
2022-11-24T14:09:52.199Z,10.30
2022-11-24T14:12:31.888Z,10.20
2022-11-24T14:15:34.218Z,10.10
2022-11-24T14:18:16.634Z,10.10
2022-11-24T14:20:44.353Z,10.00
2022-11-24T14:23:12.970Z,9.90
2022-11-24T14:25:40.801Z,10.00
2022-11-24T14:28:28.849Z,10.20
2022-11-24T14:31:25.617Z,10.20
2022-11-24T14:34:17.567Z,10.30
2022-11-24T14:36:45.434Z,10.30
2022-11-24T14:39:24.745Z,10.50
2022-11-24T14:42:15.786Z,10.50
2022-11-24T14:45:04.053Z,10.40
2022-11-24T14:47:44.886Z,10.30
2022-11-24T14:50:22.209Z,10.10
2022-11-24T14:52:59.018Z,10.00
2022-11-24T14:55:39.277Z,9.80
2022-11-24T14:58:34.582Z,9.70
2022-11-24T15:01:35.167Z,9.50
2022-11-24T15:07:27.180Z,9.20
2022-11-24T15:10:03.860Z,9.10
2022-11-24T15:12:44.045Z,8.90
2022-11-24T15:15:14.493Z,8.90
2022-11-24T15:18:02.794Z,8.80
2022-11-24T15:20:48.129Z,8.70
2022-11-24T15:23:32.111Z,8.60
2022-11-24T15:26:02.420Z,8.50
2022-11-24T15:28:33.844Z,8.40
2022-11-24T15:31:12.547Z,8.40
2022-11-24T15:33:42.425Z,8.30
2022-11-24T15:36:12.485Z,8.30
2022-11-24T15:38:40.188Z,8.30
2022-11-24T15:41:25.420Z,8.20
2022-11-24T15:43:58.966Z,8.00
2022-11-24T15:46:38.151Z,8.00
2022-11-24T15:49:07.363Z,7.80
2022-11-24T15:51:46.241Z,7.90
2022-11-24T15:54:18.952Z,7.80
2022-11-24T15:56:47.133Z,7.80
2022-11-24T15:59:20.797Z,7.80
2022-11-24T16:01:50.805Z,7.70
2022-11-24T16:04:18.713Z,7.60
2022-11-24T16:06:46.264Z,7.50
2022-11-24T16:09:17.364Z,7.50
2022-11-24T16:11:45.199Z,7.40
2022-11-24T16:14:12.860Z,7.30
2022-11-24T16:16:41.499Z,7.30
2022-11-24T16:19:11.232Z,7.20
2022-11-24T16:21:38.816Z,7.20
2022-11-24T16:24:07.192Z,7.30
2022-11-24T16:26:35.484Z,7.30
2022-11-24T16:29:04.273Z,7.30
2022-11-24T16:31:33.067Z,7.30
2022-11-24T16:34:00.808Z,7.30
2022-11-24T16:36:28.572Z,7.30
2022-11-24T16:38:56.207Z,7.30
2022-11-24T16:41:23.788Z,7.40
2022-11-24T16:43:53.078Z,7.50
2022-11-24T16:46:24.966Z,7.60
2022-11-24T16:49:00.137Z,7.50
2022-11-24T16:51:34.247Z,7.50
2022-11-24T16:54:03.960Z,7.60
2022-11-24T16:56:36.125Z,7.60
2022-11-24T16:59:13.461Z,7.50
2022-11-24T17:01:41.540Z,7.50
2022-11-24T17:04:12.590Z,7.40
2022-11-24T17:06:41.702Z,7.30
2022-11-24T17:09:10.641Z,7.20
2022-11-24T17:11:38.508Z,7.30
2022-11-24T17:14:06.160Z,7.30
2022-11-24T17:16:33.817Z,7.40
2022-11-24T17:19:01.594Z,7.40
2022-11-24T17:21:29.542Z,7.40
2022-11-24T17:24:07.370Z,7.40
2022-11-24T17:26:35.421Z,7.50
2022-11-24T17:29:03.919Z,7.50
2022-11-24T17:31:37.087Z,7.70
2022-11-24T17:34:07.924Z,7.70
2022-11-24T17:36:36.198Z,7.80
2022-11-24T17:39:11.179Z,7.90
2022-11-24T17:41:38.886Z,7.90
2022-11-24T17:44:08.682Z,8.00
2022-11-24T17:46:37.272Z,8.00
2022-11-24T17:49:06.741Z,8.00
2022-11-24T17:51:34.530Z,7.90
2022-11-24T17:54:18.679Z,7.90
2022-11-24T17:56:49.692Z,7.90
2022-11-24T17:59:17.335Z,8.00
2022-11-24T18:01:44.914Z,8.20
2022-11-24T18:04:12.590Z,8.20
2022-11-24T18:06:40.266Z,8.30
2022-11-24T18:09:07.897Z,8.30
2022-11-24T18:11:35.510Z,8.20
2022-11-24T18:14:05.006Z,8.10
2022-11-24T18:16:36.071Z,8.10
2022-11-24T18:19:11.076Z,8.10
2022-11-24T18:21:41.827Z,8.10
2022-11-24T18:24:12.644Z,8.00
2022-11-24T18:26:43.645Z,7.90
2022-11-24T18:29:12.585Z,7.90
2022-11-24T18:31:40.668Z,7.90
2022-11-24T18:34:08.983Z,8.00
2022-11-24T18:36:37.687Z,8.10
2022-11-24T18:39:09.053Z,8.20
2022-11-24T18:41:37.198Z,8.20
2022-11-24T18:44:08.316Z,8.20
2022-11-24T18:46:37.800Z,8.10
2022-11-24T18:49:08.675Z,8.10
2022-11-24T18:51:36.362Z,7.90
2022-11-24T18:54:05.612Z,7.90
2022-11-24T18:56:33.881Z,7.70
2022-11-24T18:59:01.641Z,7.70
2022-11-24T19:01:31.482Z,7.60
2022-11-24T19:04:03.141Z,7.40
2022-11-24T19:06:38.067Z,7.40
2022-11-24T19:09:20.610Z,7.40
2022-11-24T19:11:48.576Z,7.40
2022-11-24T19:14:19.289Z,7.30
2022-11-24T19:16:49.792Z,7.20
2022-11-24T19:19:17.691Z,7.40
2022-11-24T19:21:45.350Z,7.40
2022-11-24T19:24:13.464Z,7.30
2022-11-24T19:26:41.718Z,7.20
2022-11-24T19:29:10.309Z,7.20
2022-11-24T19:31:39.604Z,7.20
2022-11-24T19:34:08.262Z,7.10
2022-11-24T19:36:37.786Z,7.00
2022-11-24T19:39:05.753Z,7.20
2022-11-24T19:41:34.567Z,7.40
2022-11-24T19:44:02.253Z,7.30
2022-11-24T19:46:30.905Z,7.30
2022-11-24T19:49:04.145Z,7.20
2022-11-24T19:51:41.636Z,7.20
2022-11-24T19:54:14.994Z,7.20
2022-11-24T19:56:42.915Z,7.30
2022-11-24T19:59:15.259Z,7.40
2022-11-24T20:01:43.231Z,7.30
2022-11-24T20:04:15.586Z,7.20
2022-11-24T20:06:49.482Z,7.20
2022-11-24T20:09:21.032Z,7.10
2022-11-24T20:11:52.081Z,7.00
2022-11-24T20:14:22.584Z,7.00
2022-11-24T20:16:55.904Z,7.00
2022-11-24T20:19:23.978Z,7.00
2022-11-24T20:21:53.436Z,6.80
2022-11-24T20:24:24.820Z,6.80
2022-11-24T20:26:59.013Z,6.70
2022-11-24T20:29:29.236Z,6.80
2022-11-24T20:31:58.398Z,6.70
2022-11-24T20:34:27.427Z,6.50
2022-11-24T20:36:56.556Z,6.40
2022-11-24T20:39:28.642Z,6.30
2022-11-24T20:41:56.958Z,6.20
2022-11-24T20:44:26.881Z,6.10
2022-11-24T20:46:59.828Z,6.00
2022-11-24T20:49:28.946Z,5.90
2022-11-24T20:51:57.659Z,5.80
2022-11-24T20:54:28.336Z,5.80
2022-11-24T20:56:56.073Z,5.80
2022-11-24T20:59:26.138Z,5.90
2022-11-24T21:01:55.534Z,5.80
2022-11-24T21:04:28.248Z,5.70
2022-11-24T21:06:56.602Z,5.60
2022-11-24T21:09:25.240Z,5.50
2022-11-24T21:11:52.963Z,5.40
2022-11-24T21:14:20.815Z,5.30
2022-11-24T21:16:48.751Z,5.40
2022-11-24T21:19:20.285Z,5.40
2022-11-24T21:21:48.926Z,5.50
2022-11-24T21:24:22.015Z,5.40
2022-11-24T21:26:52.831Z,5.30
2022-11-24T21:29:23.736Z,5.30
2022-11-24T21:31:52.360Z,5.30
2022-11-24T21:34:20.329Z,5.20
2022-11-24T21:36:48.540Z,5.20
2022-11-24T21:39:17.178Z,5.20
2022-11-24T21:41:45.257Z,5.20
2022-11-24T21:44:14.868Z,5.10
2022-11-24T21:46:48.044Z,5.10
2022-11-24T21:49:18.704Z,5.10
2022-11-24T21:51:46.305Z,5.10
2022-11-24T21:54:13.903Z,5.10
2022-11-24T21:56:41.862Z,5.00
2022-11-24T21:59:09.652Z,4.90
2022-11-24T22:01:37.366Z,4.90
2022-11-24T22:04:05.650Z,4.90
2022-11-24T22:06:34.342Z,5.00
2022-11-24T22:09:02.084Z,5.00
2022-11-24T22:11:30.017Z,5.00
2022-11-24T22:13:58.444Z,4.90
2022-11-24T22:16:26.163Z,5.00
2022-11-24T22:18:54.011Z,5.00
2022-11-24T22:21:30.838Z,4.90
2022-11-24T22:23:58.943Z,5.00
2022-11-24T22:26:29.235Z,5.00
2022-11-24T22:28:58.833Z,4.90
2022-11-24T22:31:33.560Z,5.00
2022-11-24T22:34:02.214Z,5.00
2022-11-24T22:36:31.285Z,5.20
2022-11-24T22:39:07.144Z,5.20
2022-11-24T22:41:36.707Z,5.20
2022-11-24T22:44:05.642Z,5.30
2022-11-24T22:46:33.795Z,5.40
2022-11-24T22:49:02.591Z,5.70
2022-11-24T22:51:35.015Z,6.00
2022-11-24T22:54:06.186Z,6.20
2022-11-24T22:56:34.831Z,6.70
2022-11-24T22:59:04.747Z,6.90
2022-11-24T23:01:34.331Z,7.00
2022-11-24T23:04:03.939Z,7.20
2022-11-24T23:06:33.841Z,7.40
2022-11-24T23:09:05.080Z,7.50
2022-11-24T23:11:41.457Z,7.50
2022-11-24T23:14:15.723Z,7.60
2022-11-24T23:16:43.785Z,7.70
2022-11-24T23:19:11.631Z,7.90
2022-11-24T23:21:42.449Z,8.00
2022-11-24T23:24:11.581Z,8.10
2022-11-24T23:26:41.875Z,8.00
2022-11-24T23:29:11.977Z,8.00
2022-11-24T23:31:40.307Z,8.10
2022-11-24T23:34:08.715Z,8.10
2022-11-24T23:36:36.925Z,8.10
2022-11-24T23:39:13.613Z,8.20
2022-11-24T23:41:41.743Z,8.20
2022-11-24T23:44:10.019Z,8.10
2022-11-24T23:46:37.663Z,8.00
2022-11-24T23:49:05.319Z,7.90
2022-11-24T23:51:34.028Z,7.80
2022-11-24T23:54:01.878Z,7.70
2022-11-24T23:56:33.206Z,7.70
2022-11-24T23:59:04.608Z,7.80
